Time;durP1;ratioP1;P1;durP2;ratioP2;P2;SDS_P1;SDS_P2;PMS_P1;PMS_P2;Temp;Humidity;BMP_temperature;BMP_pressure;BME280_temperature;BME280_humidity;BME280_pressure;Samples;Min_cycle;Max_cycle;Signal;HPM_P1;HPM_P2
2022/11/26 00:00:42;;;;;;;17.25;9.60;;;;;;;3.52;100.00;99310.13;4201969;28;20511;-75
2022/11/26 00:02:44;;;;;;;14.00;8.65;;;;;;;3.50;100.00;99306.91;4202284;28;20082;-75
2022/11/26 00:04:44;;;;;;;12.60;8.40;;;;;;;3.48;100.00;99312.69;4203709;28;20482;-75
2022/11/26 00:06:44;;;;;;;15.82;9.07;;;;;;;3.52;100.00;99310.13;4202444;28;20048;-75
2022/11/26 00:08:45;;;;;;;13.82;8.90;;;;;;;3.53;100.00;99314.47;4202399;28;20048;-75
2022/11/26 00:10:48;;;;;;;16.40;8.68;;;;;;;3.50;100.00;99309.63;4202974;28;20040;-75
2022/11/26 00:12:49;;;;;;;14.38;8.60;;;;;;;3.50;100.00;99306.91;4201407;28;20459;-75
2022/11/26 00:14:50;;;;;;;22.42;11.77;;;;;;;3.53;100.00;99318.03;4201991;28;20044;-75
2022/11/26 00:16:50;;;;;;;21.48;12.30;;;;;;;3.59;100.00;99314.06;4202207;28;20468;-75
2022/11/26 00:18:50;;;;;;;20.25;10.90;;;;;;;3.62;100.00;99318.88;4202543;28;20055;-75
2022/11/26 00:20:55;;;;;;;24.92;12.48;;;;;;;3.67;100.00;99313.31;4202129;28;20052;-75
2022/11/26 00:23:00;;;;;;;23.00;11.65;;;;;;;3.80;100.00;99333.50;4201667;28;20040;-75
2022/11/26 00:25:00;;;;;;;21.63;11.02;;;;;;;3.83;100.00;99324.66;4202045;28;20523;-75
2022/11/26 00:27:00;;;;;;;16.23;9.45;;;;;;;3.85;100.00;99322.41;4201873;28;20059;-75
2022/11/26 00:29:01;;;;;;;24.05;10.35;;;;;;;3.93;100.00;99329.88;4201160;28;20291;-74
2022/11/26 00:31:04;;;;;;;15.18;8.55;;;;;;;4.02;100.00;99323.66;4201778;28;20505;-75
2022/11/26 00:33:06;;;;;;;14.50;8.20;;;;;;;4.06;100.00;99330.13;4200493;28;20051;-75
2022/11/26 00:35:06;;;;;;;14.17;7.77;;;;;;;4.12;100.00;99337.06;4202626;28;20123;-75
2022/11/26 00:37:53;;;;;;;15.10;7.50;;;;;;;4.15;100.00;99333.72;4201938;28;20305;-75
2022/11/26 00:39:56;;;;;;;14.95;7.32;;;;;;;4.15;100.00;99330.97;4193542;28;20055;-75
2022/11/26 00:41:56;;;;;;;15.18;7.75;;;;;;;4.19;100.00;99342.91;4201913;28;20084;-75
2022/11/26 00:43:57;;;;;;;16.05;7.10;;;;;;;4.20;100.00;99334.38;4201336;28;20044;-75
2022/11/26 00:45:57;;;;;;;13.35;7.20;;;;;;;4.24;100.00;99337.28;4202700;28;20100;-75
2022/11/26 00:48:00;;;;;;;14.57;7.18;;;;;;;4.25;100.00;99338.91;4203243;28;20150;-75
2022/11/26 00:50:00;;;;;;;;;;;;;;;4.28;100.00;99346.50;4202576;28;20047;-75
2022/11/26 00:52:01;;;;;;;14.32;7.15;;;;;;;4.27;100.00;99342.13;4201915;28;20115;-75
2022/11/26 00:54:02;;;;;;;15.10;6.97;;;;;;;4.36;100.00;99342.97;4201946;28;20123;-75
2022/11/26 00:56:03;;;;;;;11.32;6.50;;;;;;;4.38;100.00;99357.16;4202023;28;20275;-75
2022/11/26 00:58:05;;;;;;;13.25;6.57;;;;;;;4.41;100.00;99351.06;4201527;28;20085;-75
2022/11/26 01:00:17;;;;;;;16.17;7.13;;;;;;;4.44;100.00;99347.69;4202479;28;20086;-75
2022/11/26 01:02:17;;;;;;;12.07;6.28;;;;;;;4.42;100.00;99362.84;4204891;28;20028;-75
2022/11/26 01:04:17;;;;;;;14.32;6.82;;;;;;;4.41;100.00;99355.75;4204768;28;20518;-75
2022/11/26 01:06:33;;;;;;;12.40;6.55;;;;;;;4.36;100.00;99356.69;4187171;28;20438;-75
2022/11/26 01:08:35;;;;;;;14.50;6.78;;;;;;;4.31;100.00;99353.28;4205334;28;20055;-75
2022/11/26 01:10:35;;;;;;;13.32;6.15;;;;;;;4.22;100.00;99348.56;4205517;28;20056;-75
2022/11/26 01:12:35;;;;;;;11.80;5.95;;;;;;;4.19;100.00;99360.13;4185905;28;20053;-75
2022/11/26 01:14:36;;;;;;;12.00;6.82;;;;;;;4.20;100.00;99366.44;4205192;28;20051;-75
2022/11/26 01:16:40;;;;;;;11.15;6.30;;;;;;;4.24;100.00;99370.16;4205058;28;20127;-75
2022/11/26 01:18:41;;;;;;;10.57;6.63;;;;;;;4.22;100.00;99367.75;4205062;28;20407;-75
2022/11/26 01:20:42;;;;;;;9.57;5.68;;;;;;;4.21;100.00;99374.31;4205171;28;20119;-75
2022/11/26 01:22:42;;;;;;;10.23;6.38;;;;;;;4.21;100.00;99368.03;4204075;28;20515;-74
2022/11/26 01:24:43;;;;;;;14.75;7.18;;;;;;;4.22;100.00;99372.41;4205501;28;20028;-75
2022/11/26 01:26:43;;;;;;;10.77;5.55;;;;;;;4.21;100.00;99377.06;4204800;28;20482;-75
2022/11/26 01:28:44;;;;;;;10.98;6.90;;;;;;;4.20;100.00;99380.13;4203994;28;20435;-75
2022/11/26 01:30:45;;;;;;;9.68;5.88;;;;;;;4.28;100.00;99381.28;4204595;28;20055;-75
2022/11/26 01:32:46;;;;;;;12.88;6.50;;;;;;;4.27;100.00;99376.94;4203882;28;20059;-75
2022/11/26 01:34:47;;;;;;;16.13;7.68;;;;;;;4.27;100.00;99383.22;4204680;28;20039;-75
2022/11/26 01:36:47;;;;;;;13.80;6.75;;;;;;;4.29;100.00;99382.91;4204717;28;20067;-75
2022/11/26 01:38:48;;;;;;;13.60;5.80;;;;;;;4.29;100.00;99385.66;4204854;28;20062;-75
2022/11/26 01:40:53;;;;;;;13.45;6.00;;;;;;;4.25;100.00;99382.75;4204879;28;20100;-75
2022/11/26 01:43:14;;;;;;;11.27;6.57;;;;;;;4.26;100.00;99386.28;4202822;28;20591;-75
2022/11/26 01:45:17;;;;;;;13.55;5.93;;;;;;;4.24;100.00;99389.34;4204848;28;20372;-75
2022/11/26 01:47:29;;;;;;;9.90;6.63;;;;;;;4.28;100.00;99395.78;4205012;28;20094;-75
2022/11/26 01:49:33;;;;;;;13.18;7.75;;;;;;;4.29;100.00;99396.59;4204557;28;20064;-75
2022/11/26 01:51:34;;;;;;;12.95;7.43;;;;;;;4.29;100.00;99402.88;4204641;28;20052;-74
2022/11/26 01:53:40;;;;;;;15.95;6.80;;;;;;;4.32;100.00;99407.75;4203941;28;20041;-74
2022/11/26 01:55:50;;;;;;;11.02;6.57;;;;;;;4.28;100.00;99405.94;4204144;28;20048;-75
2022/11/26 01:57:50;;;;;;;13.23;7.35;;;;;;;4.32;100.00;99415.16;4204879;28;20269;-75
2022/11/26 01:59:59;;;;;;;13.68;7.00;;;;;;;4.29;100.00;99411.09;4204553;28;20044;-75
2022/11/26 02:02:00;;;;;;;15.50;7.18;;;;;;;4.34;100.00;99413.72;4204340;28;20044;-75
2022/11/26 02:04:08;;;;;;;18.17;7.35;;;;;;;4.39;100.00;99424.56;4204422;28;20036;-75
2022/11/26 02:06:15;;;;;;;15.32;8.90;;;;;;;4.44;100.00;99426.34;4203392;28;20087;-75
2022/11/26 02:08:15;;;;;;;28.02;7.32;;;;;;;4.48;100.00;99428.16;4204129;28;20444;-75
2022/11/26 02:10:15;;;;;;;16.02;8.70;;;;;;;4.50;100.00;99428.63;4203724;28;20107;-75
2022/11/26 02:12:16;;;;;;;16.38;9.02;;;;;;;4.51;100.00;99426.72;4203275;28;20035;-75
2022/11/26 02:14:22;;;;;;;17.15;8.73;;;;;;;4.61;100.00;99422.88;4203674;28;20311;-75
2022/11/26 02:16:37;;;;;;;17.73;7.47;;;;;;;4.66;100.00;99422.75;4203620;28;20060;-75
2022/11/26 02:18:44;;;;;;;16.77;7.68;;;;;;;4.69;100.00;99439.38;4185590;28;20102;-76
2022/11/26 02:20:56;;;;;;;19.10;7.70;;;;;;;4.67;100.00;99441.63;4204083;28;20044;-75
2022/11/26 02:23:21;;;;;;;16.42;9.05;;;;;;;4.67;100.00;99441.63;4203749;28;20087;-75
2022/11/26 02:25:55;;;;;;;16.20;9.05;;;;;;;4.74;100.00;99446.66;4203390;28;20435;-75
2022/11/26 02:28:20;;;;;;;13.45;8.00;;;;;;;4.69;100.00;99449.53;4204232;28;20419;-75
2022/11/26 02:30:21;;;;;;;14.80;8.75;;;;;;;4.66;100.00;99455.66;4203321;28;20052;-75
2022/11/26 02:32:36;;;;;;;15.57;7.95;;;;;;;4.62;100.00;99449.16;4203563;28;20157;-75
2022/11/26 02:34:51;;;;;;;18.90;10.35;;;;;;;4.60;100.00;99445.94;4204130;28;20438;-75
2022/11/26 02:36:59;;;;;;;17.35;10.00;;;;;;;4.60;100.00;99454.97;4203343;28;20024;-75
2022/11/26 02:39:15;;;;;;;20.45;10.35;;;;;;;4.62;100.00;99452.72;4203618;28;20045;-75
2022/11/26 02:41:15;;;;;;;17.52;10.50;;;;;;;4.60;100.00;99459.63;4202806;28;20055;-75
2022/11/26 02:43:17;;;;;;;15.05;9.65;;;;;;;4.63;100.00;99461.75;4202515;28;20040;-75
2022/11/26 02:45:33;;;;;;;13.00;8.07;;;;;;;4.65;100.00;99460.31;4203945;28;20040;-75
2022/11/26 02:47:36;;;;;;;18.33;9.43;;;;;;;4.62;100.00;99458.19;4204486;28;20487;-75
2022/11/26 02:49:41;;;;;;;20.90;10.07;;;;;;;4.64;100.00;99458.72;4203273;28;20070;-75
2022/11/26 02:51:41;;;;;;;14.52;7.15;;;;;;;4.70;100.00;99470.31;4203240;28;20449;-75
2022/11/26 02:53:43;;;;;;;16.13;6.82;;;;;;;4.75;100.00;99465.53;4202599;28;20143;-75
2022/11/26 02:55:48;;;;;;;13.43;6.25;;;;;;;4.79;100.00;99471.97;4203549;28;20048;-75
2022/11/26 02:57:50;;;;;;;15.15;6.63;;;;;;;4.79;100.00;99474.72;4203778;28;20052;-75
2022/11/26 02:59:50;;;;;;;11.75;6.07;;;;;;;4.74;100.00;99472.13;4203460;28;20148;-75
2022/11/26 03:01:59;;;;;;;11.60;5.38;;;;;;;4.79;100.00;99473.91;4203486;28;20495;-75
2022/11/26 03:04:06;;;;;;;10.45;5.75;;;;;;;4.80;100.00;99481.03;4202882;28;20270;-75
2022/11/26 03:06:12;;;;;;;10.55;5.50;;;;;;;4.79;100.00;99484.88;4202846;28;20036;-75
2022/11/26 03:08:13;;;;;;;7.95;5.95;;;;;;;4.74;100.00;99487.78;4202589;28;20418;-75
2022/11/26 03:10:13;;;;;;;14.75;5.72;;;;;;;4.68;100.00;99489.03;4203178;28;20138;-75
2022/11/26 03:12:13;;;;;;;11.93;5.95;;;;;;;4.64;100.00;99496.28;4203677;28;20339;-75
2022/11/26 03:14:14;;;;;;;12.27;6.32;;;;;;;4.57;100.00;99496.72;4202553;28;20055;-75
2022/11/26 03:16:15;;;;;;;11.32;6.20;;;;;;;4.59;100.00;99499.13;4203003;28;20048;-75
2022/11/26 03:18:15;;;;;;;11.43;5.68;;;;;;;4.55;100.00;99495.41;4203203;28;20035;-75
2022/11/26 03:20:17;;;;;;;9.93;5.88;;;;;;;4.54;100.00;99505.53;4202881;28;20038;-75
2022/11/26 03:22:17;;;;;;;11.75;5.63;;;;;;;4.49;100.00;99508.44;4203009;28;20024;-75
2022/11/26 03:24:17;;;;;;;11.60;5.90;;;;;;;4.48;100.00;99512.31;4201701;28;20031;-75
2022/11/26 03:26:18;;;;;;;11.82;5.78;;;;;;;4.44;100.00;99514.84;4203455;28;20176;-75
2022/11/26 03:28:18;;;;;;;11.55;6.30;;;;;;;4.37;100.00;99511.72;4202756;28;20024;-75
2022/11/26 03:30:18;;;;;;;11.43;5.95;;;;;;;4.37;100.00;99514.47;4202909;28;20384;-75
2022/11/26 03:32:19;;;;;;;9.70;5.63;;;;;;;4.31;100.00;99510.25;4203254;28;20036;-75
2022/11/26 03:34:19;;;;;;;9.82;5.40;;;;;;;4.31;100.00;99520.41;4202172;28;20066;-75
2022/11/26 03:36:19;;;;;;;17.70;5.70;;;;;;;4.32;100.00;99522.81;4202667;28;20426;-75
2022/11/26 03:38:20;;;;;;;13.45;6.15;;;;;;;4.26;100.00;99529.53;4202709;28;20115;-75
2022/11/26 03:40:20;;;;;;;10.13;5.50;;;;;;;4.22;100.00;99525.81;4202816;28;20373;-75
2022/11/26 03:42:21;;;;;;;12.18;6.15;;;;;;;4.24;100.00;99534.53;4202646;28;20056;-75
2022/11/26 03:44:21;;;;;;;17.73;6.25;;;;;;;4.21;100.00;99535.13;4201893;28;20047;-75
2022/11/26 03:46:21;;;;;;;13.95;6.53;;;;;;;4.19;100.00;99532.72;4203023;28;20525;-75
2022/11/26 03:48:22;;;;;;;10.13;6.05;;;;;;;4.27;100.00;99530.34;4202733;28;20380;-75
2022/11/26 03:50:22;;;;;;;12.95;5.70;;;;;;;4.28;100.00;99541.00;4202497;28;20122;-75
2022/11/26 03:52:22;;;;;;;13.10;6.38;;;;;;;4.25;100.00;99538.88;4202423;28;20036;-75
2022/11/26 03:54:23;;;;;;;10.65;6.03;;;;;;;4.23;100.00;99539.19;4202391;28;20089;-75
2022/11/26 03:56:23;;;;;;;13.40;6.55;;;;;;;4.21;100.00;99538.69;4202519;28;20040;-75
2022/11/26 03:58:23;;;;;;;18.15;6.90;;;;;;;4.18;100.00;99533.03;4184629;28;20048;-75
2022/11/26 04:00:24;;;;;;;13.98;5.78;;;;;;;4.17;100.00;99529.47;4202240;28;20051;-75
2022/11/26 04:02:24;;;;;;;14.20;6.72;;;;;;;4.12;100.00;99532.31;4202056;28;20031;-75
2022/11/26 04:04:24;;;;;;;11.75;5.95;;;;;;;4.06;100.00;99533.59;4203125;28;20391;-75
2022/11/26 04:06:25;;;;;;;11.27;6.45;;;;;;;4.01;100.00;99528.22;4202416;28;20055;-75
2022/11/26 04:08:25;;;;;;;11.55;6.95;;;;;;;3.98;100.00;99539.00;4202569;28;20048;-75
2022/11/26 04:10:25;;;;;;;10.68;5.43;;;;;;;3.92;100.00;99536.34;4202104;28;20051;-75
2022/11/26 04:12:26;;;;;;;11.20;5.43;;;;;;;3.88;100.00;99532.59;4202131;28;20040;-75
2022/11/26 04:14:26;;;;;;;10.30;5.80;;;;;;;3.82;100.00;99530.31;4200983;28;20079;-75
2022/11/26 04:16:26;;;;;;;10.55;6.07;;;;;;;3.82;100.00;99544.00;4202162;28;20412;-75
2022/11/26 04:18:27;;;;;;;11.20;6.45;;;;;;;3.81;100.00;99545.09;4202648;28;20044;-75
2022/11/26 04:20:27;;;;;;;12.07;6.38;;;;;;;3.83;100.00;99553.81;4201859;28;20047;-75
2022/11/26 04:22:27;;;;;;;9.57;5.85;;;;;;;3.83;100.00;99551.09;4201486;28;20044;-75
2022/11/26 04:24:28;;;;;;;14.00;6.00;;;;;;;3.86;100.00;99550.47;4202137;28;20476;-75
2022/11/26 04:26:28;;;;;;;8.85;5.22;;;;;;;3.87;100.00;99555.63;4202394;28;20036;-75
2022/11/26 04:28:28;;;;;;;10.68;6.00;;;;;;;3.87;100.00;99554.81;4202104;28;20163;-75
2022/11/26 04:30:29;;;;;;;10.45;6.32;;;;;;;3.91;100.00;99556.63;4202159;28;20130;-75
2022/11/26 04:32:29;;;;;;;11.45;6.22;;;;;;;3.93;100.00;99554.41;4201407;28;20064;-75
2022/11/26 04:34:29;;;;;;;11.13;6.30;;;;;;;3.96;100.00;99558.44;4202240;28;20437;-75
2022/11/26 04:36:30;;;;;;;9.50;6.05;;;;;;;3.97;100.00;99562.78;4201422;28;20097;-75
2022/11/26 04:38:30;;;;;;;11.40;6.10;;;;;;;4.00;100.00;99564.94;4202246;28;20527;-75
2022/11/26 04:40:31;;;;;;;13.35;7.18;;;;;;;4.04;100.00;99576.88;4201823;28;20264;-75
2022/11/26 04:42:31;;;;;;;14.27;6.35;;;;;;;4.03;100.00;99575.25;4201405;28;20329;-75
2022/11/26 04:44:32;;;;;;;8.60;5.50;;;;;;;4.04;100.00;99576.88;4201913;28;20127;-75
2022/11/26 04:46:32;;;;;;;12.60;6.20;;;;;;;4.06;100.00;99584.81;4201932;28;20047;-75
2022/11/26 04:48:33;;;;;;;12.27;6.72;;;;;;;4.04;100.00;99581.53;4202758;28;20047;-75
2022/11/26 04:50:33;;;;;;;13.63;6.47;;;;;;;4.03;100.00;99588.94;4201933;28;20044;-75
2022/11/26 04:52:33;;;;;;;12.43;6.72;;;;;;;4.05;100.00;99591.38;4200387;28;20334;-75
2022/11/26 04:54:33;;;;;;;13.38;7.45;;;;;;;4.06;100.00;99590.28;4201552;28;20098;-75
2022/11/26 04:56:34;;;;;;;12.15;6.72;;;;;;;4.10;100.00;99594.81;4200830;28;20087;-75
2022/11/26 04:58:34;;;;;;;11.38;6.88;;;;;;;4.15;100.00;99589.25;4202204;28;20492;-75
2022/11/26 05:00:35;;;;;;;14.60;6.53;;;;;;;4.15;100.00;99594.72;4183795;28;20087;-75
2022/11/26 05:02:35;;;;;;;15.02;7.03;;;;;;;4.13;100.00;99601.59;4201288;28;20173;-75
2022/11/26 05:04:36;;;;;;;15.60;8.02;;;;;;;4.13;100.00;99601.59;4203364;28;20070;-75
2022/11/26 05:06:36;;;;;;;13.32;6.65;;;;;;;4.12;100.00;99600.00;4201772;28;20206;-75
2022/11/26 05:08:36;;;;;;;14.00;7.15;;;;;;;4.13;100.00;99609.81;4201885;28;20194;-75
2022/11/26 05:10:37;;;;;;;11.60;6.63;;;;;;;4.14;100.00;99611.47;4202268;28;20040;-75
2022/11/26 05:12:37;;;;;;;14.70;6.50;;;;;;;4.17;100.00;99613.59;4201067;28;20044;-75
2022/11/26 05:14:37;;;;;;;11.38;6.82;;;;;;;4.18;100.00;99615.19;4201656;28;20167;-75
2022/11/26 05:16:38;;;;;;;13.95;6.90;;;;;;;4.16;100.00;99615.50;4201952;28;20076;-75
2022/11/26 05:18:38;;;;;;;14.85;6.78;;;;;;;4.17;100.00;99611.66;4202151;28;20047;-75
2022/11/26 05:20:38;;;;;;;11.43;7.05;;;;;;;4.15;100.00;99611.16;4201567;28;20096;-75
2022/11/26 05:22:38;;;;;;;26.90;8.02;;;;;;;4.17;100.00;99624.53;4200614;28;20077;-75
2022/11/26 05:24:39;;;;;;;13.45;6.53;;;;;;;4.15;100.00;99622.13;4202666;28;20076;-75
2022/11/26 05:26:39;;;;;;;12.25;6.40;;;;;;;4.15;100.00;99621.31;4201802;28;20102;-75
2022/11/26 05:28:39;;;;;;;10.35;5.97;;;;;;;4.12;100.00;99630.94;4201132;28;20331;-75
2022/11/26 05:30:40;;;;;;;10.07;5.70;;;;;;;4.10;100.00;99621.41;4200890;28;20159;-75
2022/11/26 05:32:40;;;;;;;11.38;6.25;;;;;;;4.12;100.00;99632.84;4198837;28;20052;-75
2022/11/26 05:34:41;;;;;;;15.43;7.47;;;;;;;4.13;100.00;99626.25;4201245;28;20040;-75
2022/11/26 05:36:41;;;;;;;12.52;7.32;;;;;;;4.21;100.00;99637.28;4201783;28;20480;-75
2022/11/26 05:38:41;;;;;;;11.77;6.53;;;;;;;4.19;100.00;99633.25;4201918;28;20042;-75
2022/11/26 05:40:42;;;;;;;12.05;7.15;;;;;;;4.21;100.00;99639.22;4201512;28;20036;-75
2022/11/26 05:42:42;;;;;;;12.95;7.13;;;;;;;4.22;100.00;99641.69;4200808;28;20052;-75
2022/11/26 05:44:43;;;;;;;15.05;7.88;;;;;;;4.22;100.00;99649.91;4202166;28;20047;-75
2022/11/26 05:46:43;;;;;;;13.07;6.68;;;;;;;4.20;100.00;99646.63;4202710;28;20075;-75
2022/11/26 05:48:43;;;;;;;15.50;7.50;;;;;;;4.24;100.00;99652.31;4205755;28;20044;-75
2022/11/26 05:50:44;;;;;;;13.48;7.22;;;;;;;4.24;100.00;99649.59;4204611;28;20054;-75
2022/11/26 05:52:44;;;;;;;10.55;6.10;;;;;;;4.20;100.00;99648.56;4203961;28;20040;-75
2022/11/26 05:54:44;;;;;;;12.18;6.15;;;;;;;4.20;100.00;99659.53;4203928;28;20073;-75
2022/11/26 05:56:45;;;;;;;10.70;6.32;;;;;;;4.15;100.00;99660.47;4204538;28;20044;-75
2022/11/26 05:58:45;;;;;;;11.18;6.50;;;;;;;4.13;100.00;99656.38;4203318;28;20079;-75
2022/11/26 06:00:45;;;;;;;12.75;5.97;;;;;;;4.09;100.00;99658.13;4204468;28;20105;-75
2022/11/26 06:02:46;;;;;;;13.10;6.35;;;;;;;4.03;100.00;99659.34;4203620;28;20856;-75
2022/11/26 06:04:46;;;;;;;11.05;6.22;;;;;;;4.02;100.00;99655.00;4204480;28;20123;-75
2022/11/26 06:06:46;;;;;;;11.63;6.13;;;;;;;3.97;100.00;99663.31;4204785;28;20131;-75
2022/11/26 06:08:47;;;;;;;11.77;6.70;;;;;;;3.92;100.00;99667.78;4204477;28;20159;-75
2022/11/26 06:10:47;;;;;;;10.73;5.85;;;;;;;3.84;100.00;99662.22;4203182;28;20047;-75
2022/11/26 06:12:47;;;;;;;14.15;6.63;;;;;;;3.79;100.00;99667.78;4202581;28;20052;-75
2022/11/26 06:14:48;;;;;;;12.68;6.03;;;;;;;3.71;100.00;99672.03;4203773;28;20422;-75
2022/11/26 06:16:48;;;;;;;10.68;6.20;;;;;;;3.65;100.00;99671.34;4204167;28;20063;-75
2022/11/26 06:18:48;;;;;;;9.20;5.47;;;;;;;3.62;100.00;99671.91;4203885;28;20036;-75
2022/11/26 06:20:49;;;;;;;10.18;5.30;;;;;;;3.57;100.00;99673.97;4204376;28;20055;-75
2022/11/26 06:22:49;;;;;;;9.77;5.82;;;;;;;3.55;100.00;99676.16;4203496;28;20276;-75
2022/11/26 06:24:49;;;;;;;8.88;5.20;;;;;;;3.50;100.00;99666.16;4203992;28;20574;-75
2022/11/26 06:26:50;;;;;;;11.35;5.47;;;;;;;3.48;100.00;99673.84;4204213;28;20072;-75
2022/11/26 06:28:50;;;;;;;9.93;6.53;;;;;;;3.44;100.00;99675.56;4204329;28;20084;-75
2022/11/26 06:30:51;;;;;;;11.35;6.43;;;;;;;3.44;100.00;99675.56;4204220;28;20044;-75
2022/11/26 06:32:51;;;;;;;9.88;6.03;;;;;;;3.41;100.00;99683.56;4203099;28;20044;-75
2022/11/26 06:34:51;;;;;;;10.23;6.18;;;;;;;3.33;100.00;99676.88;4204042;28;20379;-75
2022/11/26 06:36:51;;;;;;;15.35;7.65;;;;;;;3.27;100.00;99678.88;4203758;28;20777;-75
2022/11/26 06:38:52;;;;;;;18.02;8.77;;;;;;;3.18;100.00;99691.59;4203319;28;20273;-75
2022/11/26 06:41:00;;;;;;;12.52;6.70;;;;;;;3.13;100.00;99702.63;4185719;28;20131;-75
2022/11/26 06:43:00;;;;;;;12.90;7.32;;;;;;;2.99;100.00;99688.13;4202752;28;20048;-75
2022/11/26 06:45:01;;;;;;;14.80;7.72;;;;;;;2.91;100.00;99699.72;4204460;28;20634;-75
2022/11/26 06:47:01;;;;;;;16.30;8.30;;;;;;;2.79;100.00;99705.63;4203492;28;20040;-75
2022/11/26 06:49:04;;;;;;;13.25;7.63;;;;;;;2.76;100.00;99704.31;4203725;28;20040;-75
2022/11/26 06:51:05;;;;;;;;;;;;;;;2.73;100.00;99696.72;4203670;28;20036;-75
2022/11/26 06:53:06;;;;;;;12.05;7.55;;;;;;;2.66;100.00;99706.41;4203091;28;20015;-75
2022/11/26 06:55:07;;;;;;;14.50;7.55;;;;;;;2.62;100.00;99710.81;4202351;28;20075;-75
2022/11/26 06:57:07;;;;;;;12.98;7.78;;;;;;;2.52;100.00;99700.84;4202509;28;20151;-75
2022/11/26 06:59:07;;;;;;;16.15;7.95;;;;;;;2.50;100.00;99705.81;4139825;27;20047;-75
2022/11/26 07:01:09;;;;;;;18.42;8.80;;;;;;;2.53;100.00;99697.81;4189901;28;20306;-75
2022/11/26 07:03:10;;;;;;;13.43;8.45;;;;;;;2.57;100.00;99705.44;4203721;28;20496;-75
2022/11/26 07:05:10;;;;;;;15.32;9.15;;;;;;;2.53;100.00;99706.00;4184810;28;20040;-75
2022/11/26 07:07:10;;;;;;;16.42;9.02;;;;;;;2.48;100.00;99706.09;4203494;28;20051;-76
2022/11/26 07:09:11;;;;;;;14.93;9.23;;;;;;;2.45;100.00;99709.41;4202752;28;20438;-75
2022/11/26 07:11:13;;;;;;;15.50;9.63;;;;;;;2.42;100.00;99720.13;4202656;28;20529;-75
2022/11/26 07:13:13;;;;;;;19.17;10.00;;;;;;;2.39;100.00;99718.75;4202695;28;20388;-75
2022/11/26 07:15:13;;;;;;;18.63;10.00;;;;;;;2.39;100.00;99718.75;4202667;28;20048;-75
2022/11/26 07:17:13;;;;;;;17.20;10.50;;;;;;;2.38;100.00;99722.59;4203268;28;20043;-75
2022/11/26 07:19:14;;;;;;;18.55;10.05;;;;;;;2.36;100.00;99719.38;4203369;28;20071;-75
2022/11/26 07:21:14;;;;;;;17.85;11.50;;;;;;;2.33;100.00;99719.97;4202766;28;20302;-75
2022/11/26 07:23:15;;;;;;;20.50;12.55;;;;;;;2.27;100.00;99721.13;4202448;28;20079;-75
2022/11/26 07:25:16;;;;;;;19.35;14.18;;;;;;;2.18;100.00;99720.97;4202332;28;20071;-75
2022/11/26 07:27:16;;;;;;;20.42;13.48;;;;;;;2.11;100.00;99728.69;4203119;28;20723;-74
2022/11/26 07:29:16;;;;;;;22.15;11.40;;;;;;;2.09;100.00;99728.19;4201656;28;20127;-75
2022/11/26 07:31:18;;;;;;;19.98;12.77;;;;;;;1.97;100.00;99727.75;4202597;28;20954;-75
2022/11/26 07:33:19;;;;;;;17.83;11.75;;;;;;;1.92;100.00;99736.03;4202148;28;20322;-75
2022/11/26 07:35:19;;;;;;;20.42;11.85;;;;;;;1.88;100.00;99734.97;4201856;28;20300;-75
2022/11/26 07:37:20;;;;;;;25.77;11.30;;;;;;;1.83;100.00;99741.31;4202651;28;20076;-75
2022/11/26 07:39:20;;;;;;;19.27;12.63;;;;;;;1.78;100.00;99744.09;4201365;28;20044;-75
2022/11/26 07:41:21;;;;;;;17.73;11.73;;;;;;;1.75;100.00;99752.03;4201377;28;20071;-75
2022/11/26 07:43:21;;;;;;;18.67;12.38;;;;;;;1.69;100.00;99748.53;4201543;28;20125;-75
2022/11/26 07:45:21;;;;;;;23.42;14.00;;;;;;;1.67;100.00;99761.66;4202608;28;20044;-75
2022/11/26 07:47:22;;;;;;;25.30;14.32;;;;;;;1.65;100.00;99759.22;4203469;28;20044;-75
2022/11/26 07:49:23;;;;;;;20.58;13.82;;;;;;;1.67;100.00;99761.66;4202320;28;20040;-75
2022/11/26 07:51:28;;;;;;;21.23;11.85;;;;;;;1.67;100.00;99765.22;4202858;28;20119;-75
2022/11/26 07:53:30;;;;;;;16.60;10.25;;;;;;;1.79;100.00;99770.25;4202002;28;20048;-75
2022/11/26 07:55:30;;;;;;;16.27;8.60;;;;;;;1.85;100.00;99765.56;4201902;28;20071;-75
2022/11/26 07:57:30;;;;;;;12.45;8.18;;;;;;;2.00;100.00;99770.06;4202310;28;20048;-75
2022/11/26 07:59:31;;;;;;;18.23;8.90;;;;;;;2.09;100.00;99762.84;4202355;28;20057;-75
2022/11/26 08:01:32;;;;;;;17.65;9.13;;;;;;;2.14;100.00;99774.50;4202209;28;20040;-75
2022/11/26 08:03:35;;;;;;;17.77;8.40;;;;;;;2.33;100.00;99773.78;4201945;28;20203;-75
2022/11/26 08:05:40;;;;;;;18.15;8.98;;;;;;;2.50;100.00;99774.09;4199743;28;20139;-75
2022/11/26 08:07:41;;;;;;;19.98;10.52;;;;;;;2.58;100.00;99776.19;4200920;28;20143;-75
2022/11/26 08:09:41;;;;;;;23.27;12.38;;;;;;;2.58;100.00;99770.72;4201852;28;20059;-75
2022/11/26 08:11:41;;;;;;;17.42;9.00;;;;;;;2.65;100.00;99784.84;4202408;28;20086;-75
2022/11/26 08:13:42;;;;;;;17.73;9.90;;;;;;;2.65;100.00;99790.28;4200931;28;20079;-75
2022/11/26 08:15:43;;;;;;;20.67;8.77;;;;;;;2.68;100.00;99792.44;4202094;28;20048;-75
2022/11/26 08:17:43;;;;;;;17.90;11.07;;;;;;;2.68;100.00;99791.63;4202650;28;20089;-75
2022/11/26 08:19:43;;;;;;;15.65;9.90;;;;;;;2.70;100.00;99797.59;4202651;28;20429;-75
2022/11/26 08:21:44;;;;;;;15.23;9.27;;;;;;;2.71;100.00;99804.69;4202273;28;20051;-75
2022/11/26 08:23:44;;;;;;;20.00;10.05;;;;;;;2.74;100.00;99798.66;4201732;28;20391;-74
2022/11/26 08:25:44;;;;;;;23.15;11.35;;;;;;;2.86;100.00;99806.41;4202035;28;20130;-75
2022/11/26 08:27:44;;;;;;;18.35;10.10;;;;;;;2.88;100.00;99802.25;4202541;28;20072;-75
2022/11/26 08:29:45;;;;;;;20.35;13.45;;;;;;;3.01;100.00;99811.66;4202301;28;20086;-75
2022/11/26 08:31:46;;;;;;;26.58;15.65;;;;;;;3.06;100.00;99808.84;4202338;28;20076;-75
2022/11/26 08:33:47;;;;;;;16.50;9.95;;;;;;;3.18;100.00;99814.69;4201477;28;20128;-75
2022/11/26 08:35:47;;;;;;;16.80;8.75;;;;;;;3.23;100.00;99817.34;4202040;28;20135;-75
2022/11/26 08:37:47;;;;;;;15.90;7.70;;;;;;;3.28;100.00;99816.44;4202416;28;20127;-75
2022/11/26 08:39:48;;;;;;;15.60;7.80;;;;;;;3.47;100.00;99821.88;4183905;28;20050;-75
2022/11/26 08:41:48;;;;;;;12.75;7.50;;;;;;;3.51;100.00;99826.47;4197965;28;20389;-75
2022/11/26 08:43:48;;;;;;;14.70;7.55;;;;;;;3.53;100.00;99832.47;4191812;28;20047;-75
2022/11/26 08:45:53;;;;;;;11.98;7.88;;;;;;;3.54;100.00;99833.25;4196757;28;20480;-75
2022/11/26 08:47:54;;;;;;;16.48;8.52;;;;;;;3.56;100.00;99836.53;4196961;28;20066;-75
2022/11/26 08:49:54;;;;;;;11.75;7.13;;;;;;;3.52;100.00;99838.22;4200750;28;20127;-75
2022/11/26 08:51:55;;;;;;;17.73;7.85;;;;;;;3.52;100.00;99847.25;4200365;28;20446;-75
2022/11/26 08:53:56;;;;;;;15.02;7.10;;;;;;;3.57;100.00;99844.44;4198876;28;20040;-75
2022/11/26 08:56:04;;;;;;;14.48;6.82;;;;;;;3.60;100.00;99849.31;4196293;28;20105;-75
2022/11/26 08:58:04;;;;;;;16.88;6.82;;;;;;;3.63;100.00;99850.63;4198292;28;20151;-75
2022/11/26 09:00:05;;;;;;;16.00;7.22;;;;;;;3.70;100.00;99851.06;4200626;28;20055;-75
2022/11/26 09:02:06;;;;;;;14.27;8.45;;;;;;;3.77;100.00;99850.69;4199552;28;20028;-75
2022/11/26 09:04:06;;;;;;;17.58;7.75;;;;;;;3.78;100.00;99858.59;4200242;28;20027;-75
2022/11/26 09:06:08;;;;;;;10.50;6.35;;;;;;;3.96;100.00;99854.19;4201725;28;20047;-75
2022/11/26 09:08:08;;;;;;;12.83;6.73;;;;;;;4.03;100.00;99853.78;4200377;28;20028;-75
2022/11/26 09:10:09;;;;;;;14.00;7.20;;;;;;;4.13;100.00;99851.66;4194722;28;20288;-75
2022/11/26 09:12:10;;;;;;;9.35;5.35;;;;;;;4.12;100.00;99850.06;4196106;28;20133;-75
2022/11/26 09:14:11;;;;;;;16.05;6.22;;;;;;;4.22;100.00;99855.38;4196626;28;20043;-75
2022/11/26 09:16:11;;;;;;;11.43;5.32;;;;;;;4.23;100.00;99859.72;4200260;28;20035;-75
2022/11/26 09:18:12;;;;;;;12.07;5.63;;;;;;;4.21;100.00;99855.63;4197215;28;20364;-75
2022/11/26 09:20:12;;;;;;;12.07;6.00;;;;;;;4.22;100.00;99865.50;4200165;28;20032;-75
2022/11/26 09:22:13;;;;;;;12.45;5.60;;;;;;;4.22;100.00;99858.09;4200441;28;20028;-75
2022/11/26 09:24:13;;;;;;;13.93;6.53;;;;;;;4.29;100.00;99863.16;4198543;28;20041;-75
2022/11/26 09:26:14;;;;;;;20.48;6.50;;;;;;;4.30;100.00;99870.25;4202437;28;20115;-75